Date,TemperatureHighF,TemperatureAvgF,TemperatureLowF,DewpointHighF,DewpointAvgF,DewpointLowF,HumidityHigh,HumidityAvg,HumidityLow,PressureMaxIn,PressureMinIn,WindSpeedMaxMPH,WindSpeedAvgMPH,GustSpeedMaxMPH,PrecipitationSumIn
2013-5-3,70,68,68,64,64,62,87,84,78,29.82,29.79,4,3,15,2.55
2013-5-4,83,71,68,68,64,62,85,79,57,29.81,29.74,4,1,15,0.09
2013-5-5,84,74,59,63,46,39,83,40,22,30.01,29.82,6,3,15,0.04
2013-5-6,82,68,56,58,50,46,77,54,30,30.09,29.96,5,2,14,0.07
2013-5-7,85,66,50,56,51,46,87,62,34,30.13,30.03,5,1,13,0.01
2013-5-8,89,72,55,64,55,50,86,58,31,30.21,30.09,4,1,13,0.01
2013-5-9,95,76,54,64,54,35,86,53,19,30.23,29.82,8,1,11,0.00
2013-5-10,140,81,59,66,60,35,85,53,19,29.93,29.62,5,2,12,0.02
2013-5-11,96,78,65,69,64,60,84,64,37,29.88,29.80,5,1,15,0.11
2013-5-12,95,79,66,68,62,58,83,59,35,29.86,29.76,6,2,13,0.02
2013-5-13,91,74,56,62,53,41,82,53,22,29.97,29.82,4,1,13,0.06
2013-5-14,92,71,46,58,46,36,85,48,15,30.05,29.95,4,1,12,0.02
2013-5-15,94,78,52,60,51,40,83,44,18,30.05,29.92,4,2,11,0.00
2013-5-16,94,72,59,59,52,35,79,54,19,29.94,29.81,8,1,11,9.34
2013-5-17,96,80,59,64,59,53,82,52,28,29.91,29.83,4,2,16,0.02
2013-5-18,102,82,62,67,62,54,83,55,23,29.92,29.80,5,1,14,0.02
2013-5-19,99,75,69,69,65,59,81,72,34,29.89,29.79,6,1,15,0.56
2013-5-20,98,78,68,72,64,61,83,66,31,29.88,29.78,6,1,16,0.04
2013-5-21,70,69,68,65,64,63,84,82,80,29.82,29.76,0,0,3,0.00
2013-5-22,59,46,34,31,27,22,70,50,27,30.03,29.89,8,2,13,0.00
2013-5-23,74,48,26,40,20,10,80,45,10,30.11,30.01,4,1,7,0.00
2013-5-24,86,64,34,62,43,28,82,52,19,30.08,29.93,8,1,11,0.00
2013-5-25,93,78,62,66,58,52,82,53,29,30.11,29.97,4,2,12,0.00
2013-5-26,94,74,54,62,53,46,83,53,24,30.13,30.05,4,1,14,0.00
2013-5-27,86,66,58,63,56,52,82,71,40,30.10,30.04,4,0,10,0.00
2013-5-28,94,78,62,65,63,55,81,61,38,30.07,29.98,8,2,12,0.00
2013-5-29,91,78,70,70,66,63,81,67,41,30.04,29.97,7,2,15,0.35
2013-5-30,89,79,72,70,66,63,81,66,48,30.03,29.95,6,2,16,0.14
2013-5-31,90,79,68,70,65,62,81,64,44,30.02,29.94,6,2,14,0.05
2013-6-1,93,81,71,70,66,64,81,63,44,29.99,29.88,5,2,14,0.00
2013-6-2,101,82,73,72,68,64,84,65,33,29.92,29.78,4,1,12,0.01
2013-6-3,86,82,72,72,69,65,82,66,59,29.84,29.80,2,1,5,0.00
2013-6-4,85,85,85,69,69,69,59,59,59,29.84,29.84,1,1,4,0.00
2013-6-5,92,82,72,70,68,62,83,64,42,29.92,29.82,6,1,14,0.42
2013-6-6,82,76,72,70,68,64,84,76,58,29.82,29.55,8,4,21,0.95
2013-6-7,95,83,73,69,67,65,80,60,40,29.85,29.65,5,2,14,0.00
2013-6-8,98,79,71,72,66,64,83,68,37,30.01,29.85,4,1,13,0.37
2013-6-9,96,80,70,72,68,65,84,70,40,30.02,29.93,4,1,9,0.21
2013-6-10,102,89,70,73,67,64,85,51,33,30.00,29.91,8,2,17,1.16
2013-6-11,98,79,72,78,69,65,87,73,42,30.00,29.91,4,1,10,0.26
2013-6-12,102,87,73,71,67,64,81,57,31,29.99,29.93,3,1,8,0.00
2013-6-13,100,83,78,66,66,66,68,60,33,29.93,29.93,2,2,8,0.00
2013-6-14,97,85,75,70,67,64,80,57,36,29.83,29.74,6,2,10,0.00
2013-6-15,97,85,76,71,68,65,78,59,41,29.99,29.81,5,2,12,0.17
2013-6-16,99,83,77,71,68,66,73,61,39,30.00,29.93,5,2,13,0.04
2013-6-17,101,86,74,74,70,67,84,62,36,29.98,29.87,4,2,9,0.38
2013-6-18,87,87,87,67,67,67,52,52,52,29.88,29.88,3,3,6,0.00
2013-6-19,87,87,87,67,67,67,52,52,52,29.88,29.88,3,3,6,0.00
2013-6-20,103,77,70,73,67,65,85,75,31,30.01,29.90,4,1,9,1.09
2013-6-21,101,79,68,74,67,64,87,71,35,30.04,29.94,6,1,14,1.07
2013-6-22,98,80,70,74,68,64,88,70,38,30.03,29.96,5,1,13,0.08
2013-6-23,101,82,69,73,68,64,85,64,35,30.06,29.97,5,1,11,0.00
2013-6-24,100,84,71,72,68,64,83,60,35,30.10,29.99,6,1,14,0.01
2013-6-25,79,79,79,67,67,67,66,66,66,30.03,30.03,0,0,2,0.00